Time;durP1;ratioP1;P1;durP2;ratioP2;P2;SDS_P1;SDS_P2;PMS_P1;PMS_P2;Temp;Humidity;BMP_temperature;BMP_pressure;BME280_temperature;BME280_humidity;BME280_pressure;Samples;Min_cycle;Max_cycle;Signal;HPM_P1;HPM_P2
2022/01/31 00:01:52;;;;;;;13.63;2.90;;;5.50;77.80;;;6.02;53.07;99155.19;6136435;22;112541;-88
2022/01/31 00:04:56;;;;;;;10.63;2.83;;;5.50;77.80;;;6.04;52.38;99164.78;6165779;22;114037;-87
2022/01/31 00:07:23;;;;;;;9.60;3.03;;;5.50;77.90;;;6.02;52.96;99158.78;6164658;22;123600;-87
2022/01/31 00:09:49;;;;;;;5.80;2.50;;;5.50;77.90;;;6.00;52.73;99150.00;6163096;22;123396;-88
2022/01/31 00:12:19;;;;;;;8.20;3.20;;;5.50;77.80;;;5.99;53.41;99153.81;6163554;22;114391;-88
2022/01/31 00:15:25;;;;;;;7.80;3.03;;;5.50;77.90;;;5.98;53.18;99149.44;6166181;22;115144;-88
2022/01/31 00:18:12;;;;;;;10.03;2.60;;;5.50;77.90;;;5.94;53.28;99145.63;6168590;22;123106;-88
2022/01/31 00:21:05;;;;;;;6.20;2.80;;;5.50;77.90;;;5.91;52.74;99151.59;6142451;22;123142;-88
2022/01/31 00:23:33;;;;;;;13.40;2.80;;;5.50;78.00;;;5.87;53.32;99137.59;6141075;22;111859;-87
2022/01/31 00:25:59;;;;;;;7.40;2.87;;;5.90;78.30;;;5.86;53.81;99137.91;6166104;22;113216;-87
2022/01/31 00:28:26;;;;;;;9.57;2.97;;;5.40;78.00;;;5.85;53.60;99122.53;6140230;22;123212;-88
2022/01/31 00:30:53;;;;;;;5.57;2.83;;;6.20;78.80;;;5.87;53.42;99112.94;6167539;22;123855;-90
2022/01/31 00:33:39;;;;;;;7.30;3.00;;;5.40;78.10;;;5.91;53.54;99099.47;6165729;22;111764;-87
2022/01/31 00:36:05;;;;;;;8.10;3.27;;;5.40;78.30;;;5.92;53.78;99098.41;6194692;22;112034;-86
2022/01/31 00:38:32;;;;;;;9.30;2.83;;;5.40;78.30;;;5.97;53.41;99106.66;6193877;22;122877;-87
2022/01/31 00:41:54;;;;;;;5.47;2.87;;;5.50;78.50;;;6.02;53.82;99101.19;6196280;22;122998;-88
2022/01/31 00:44:29;;;;;;;5.60;2.60;;;5.50;78.50;;;6.01;53.39;99123.38;6198002;22;115002;-87
2022/01/31 00:47:25;;;;;;;9.27;3.07;;;5.50;78.50;;;6.00;53.20;99110.78;6195979;22;112991;-88
2022/01/31 00:50:12;;;;;;;8.63;3.23;;;5.50;78.50;;;5.97;52.98;99088.28;6196701;22;123466;-87
2022/01/31 00:52:42;;;;;;;8.73;3.87;;;5.50;78.50;;;5.93;53.60;99073.47;6195899;22;123294;-87
2022/01/31 00:55:12;;;;;;;6.90;3.10;;;5.40;78.50;;;5.90;53.53;99073.16;6171915;22;113593;-86
2022/01/31 00:57:40;;;;;;;7.53;2.90;;;5.40;78.60;;;5.88;53.66;99064.38;6146674;22;112095;-86
2022/01/31 01:00:26;;;;;;;8.50;3.13;;;5.50;78.80;;;5.90;53.62;99040.25;6198444;22;123356;-90
2022/01/31 01:02:54;;;;;;;10.20;3.50;;;5.40;78.80;;;5.87;54.34;99035.34;6196168;22;123207;-89
2022/01/31 01:05:23;;;;;;;7.57;3.13;;;5.40;78.80;;;5.90;53.91;99034.78;6196438;22;115643;-87
2022/01/31 01:08:08;;;;;;;6.00;2.90;;;5.40;78.90;;;5.97;53.38;99035.38;6196924;22;113787;-86
2022/01/31 01:11:36;;;;;;;5.00;2.80;;;5.40;79.00;;;5.95;54.02;99021.09;6196130;22;123049;-87
2022/01/31 01:14:03;;;;;;;10.63;2.90;;;5.40;79.00;;;5.92;53.64;99011.47;6200698;22;123604;-86
2022/01/31 01:16:31;;;;;;;10.73;3.23;;;5.40;79.00;;;5.95;54.08;99010.94;6198465;22;114152;-88
2022/01/31 01:18:59;;;;;;;6.07;2.60;;;5.50;79.30;;;5.97;53.72;99014.25;6199892;22;113521;-87
2022/01/31 01:22:24;;;;;;;9.53;3.40;;;5.40;79.20;;;5.97;53.44;99018.91;6197289;22;123151;-88
2022/01/31 01:24:50;;;;;;;10.97;3.53;;;5.50;79.30;;;5.88;54.21;99009.53;6199324;22;122678;-87
2022/01/31 01:27:56;;;;;;;7.67;3.23;;;5.40;79.20;;;5.86;54.18;98998.06;6200676;22;114729;-87
2022/01/31 01:30:41;;;;;;;11.37;3.67;;;5.40;79.30;;;5.83;54.78;98979.38;6201871;22;113797;-87
2022/01/31 01:33:18;;;;;;;9.10;3.17;;;5.40;79.30;;;5.81;53.77;98952.28;6201637;22;123670;-87
2022/01/31 01:35:47;;;;;;;10.87;3.73;;;5.40;79.40;;;5.83;54.63;98947.34;6170149;22;123279;-88
2022/01/31 01:38:16;;;;;;;8.03;2.93;;;5.50;79.60;;;5.90;54.00;98933.31;6167866;22;114188;-88
2022/01/31 01:41:28;;;;;;;10.13;3.40;;;5.40;79.60;;;5.98;54.20;98941.00;6141763;22;112464;-86
2022/01/31 01:43:55;;;;;;;11.70;3.30;;;5.50;79.70;;;5.96;53.90;98941.31;6139974;22;123039;-87
2022/01/31 01:46:22;;;;;;;7.70;3.47;;;5.50;79.70;;;5.95;53.72;98941.56;6118290;22;122210;-88
2022/01/31 01:48:50;;;;;;;6.23;2.93;;;5.40;79.60;;;5.95;54.49;98908.66;6140791;22;113900;-88
2022/01/31 01:51:37;;;;;;;12.43;3.80;;;5.50;79.70;;;6.01;54.77;98879.28;6167171;22;113107;-87
2022/01/31 01:55:02;;;;;;;9.40;3.30;;;5.50;79.80;;;6.01;54.41;98838.97;6140473;22;122798;-87
2022/01/31 01:58:14;;;;;;;9.70;3.33;;;5.50;79.90;;;6.00;54.55;98839.28;6169604;22;123423;-88
2022/01/31 02:01:18;;;;;;;10.20;3.33;;;5.50;79.90;;;6.00;54.57;98820.88;6167441;22;115023;-87
2022/01/31 02:11:45;;;;;;;6.43;3.30;;;5.50;79.90;;;5.91;54.65;98793.22;6168366;22;124140;-88
2022/01/31 02:14:11;;;;;;;8.97;3.17;;;5.50;80.00;;;5.87;53.99;98766.63;6170022;22;113898;-87
2022/01/31 02:16:38;;;;;;;9.33;3.77;;;5.40;80.00;;;5.88;54.92;98768.25;6117103;22;111709;-87
2022/01/31 02:19:06;;;;;;;9.07;4.50;;;5.40;80.00;;;5.88;55.16;98785.53;6168431;22;123217;-87
2022/01/31 02:21:33;;;;;;;10.07;3.27;;;5.40;80.10;;;5.88;55.26;98768.25;6167949;22;123700;-88
2022/01/31 02:24:00;;;;;;;11.97;3.37;;;5.40;80.20;;;5.84;54.86;98767.19;6142506;22;112587;-88
2022/01/31 02:26:28;;;;;;;12.63;3.57;;;5.40;80.30;;;5.78;54.38;98769.16;6142424;22;113359;-88
2022/01/31 02:28:56;;;;;;;13.67;4.53;;;5.30;80.20;;;5.71;55.04;98747.50;6169288;22;124241;-87
2022/01/31 02:31:24;;;;;;;14.63;3.93;;;5.30;80.30;;;5.69;55.20;98749.72;6169619;22;122873;-87
2022/01/31 02:33:50;;;;;;;10.83;4.17;;;5.40;80.60;;;5.68;55.05;98759.03;6167669;22;113708;-87
2022/01/31 02:36:17;;;;;;;12.57;3.67;;;5.20;80.70;;;5.67;55.32;98740.97;6169419;22;113142;-89
2022/01/31 02:38:44;;;;;;;15.10;3.50;;;5.20;80.80;;;5.65;55.00;98748.66;6143819;22;122851;-89
2022/01/31 02:41:12;;;;;;;11.17;3.87;;;5.20;80.90;;;5.62;55.38;98745.66;6170964;22;123382;-88
2022/01/31 02:44:00;;;;;;;11.70;3.67;;;5.40;81.90;;;5.60;55.74;98762.38;6172075;22;114071;-88
2022/01/31 02:46:27;;;;;;;9.67;3.50;;;5.20;81.30;;;5.52;55.69;98744.59;6148738;22;113144;-89
2022/01/31 02:48:56;;;;;;;11.37;3.17;;;5.10;81.20;;;5.50;55.82;98735.00;6149046;22;123961;-87
2022/01/31 02:51:27;;;;;;;7.97;3.47;;;6.20;82.30;;;5.49;55.67;98714.19;6173958;22;123065;-88
2022/01/31 02:54:32;;;;;;;8.13;3.83;;;5.10;81.50;;;5.55;55.79;98704.84;6173859;22;115149;-88
2022/01/31 02:56:58;;;;;;;12.73;3.20;;;5.10;81.50;;;5.56;56.17;98695.50;6144834;22;112921;-89
2022/01/31 02:59:43;;;;;;;8.40;3.43;;;5.20;81.60;;;5.64;55.60;98678.50;6168770;22;123311;-89
2022/01/31 03:02:12;;;;;;;5.30;3.10;;;5.10;81.60;;;5.66;56.02;98653.53;6168702;22;122637;-88
2022/01/31 03:04:57;;;;;;;10.40;4.43;;;5.30;81.70;;;5.73;55.35;98634.84;6118570;22;112771;-88
2022/01/31 03:07:42;;;;;;;9.57;2.97;;;5.20;81.60;;;5.75;55.32;98638.94;6143673;22;114423;-89
2022/01/31 03:10:28;;;;;;;7.33;2.90;;;5.20;81.60;;;5.74;55.40;98640.03;6170648;22;123085;-89
2022/01/31 03:12:56;;;;;;;9.97;3.40;;;5.30;81.60;;;5.74;55.50;98642.78;6144303;22;123547;-89
2022/01/31 03:15:44;;;;;;;10.13;3.80;;;5.30;81.70;;;5.75;55.33;98652.66;6168913;22;114225;-88
2022/01/31 03:18:11;;;;;;;8.00;3.00;;;5.20;81.70;;;5.71;55.36;98626.09;6143765;22;113715;-88
2022/01/31 03:20:39;;;;;;;4.97;2.60;;;5.50;82.00;;;5.72;55.69;98620.34;6143436;22;123655;-88
2022/01/31 03:23:07;;;;;;;6.30;3.23;;;5.20;81.70;;;5.73;55.24;98601.97;6168236;22;123648;-89
2022/01/31 03:25:34;;;;;;;5.57;2.83;;;5.20;81.70;;;5.73;55.71;98597.28;6170407;22;113843;-90
2022/01/31 03:28:03;;;;;;;10.20;3.80;;;5.50;82.00;;;5.74;55.78;98589.88;6170067;22;113466;-89
2022/01/31 03:30:30;;;;;;;12.63;3.47;;;5.20;81.70;;;5.73;55.31;98580.03;6169634;22;123610;-89
2022/01/31 03:33:15;;;;;;;6.57;3.40;;;5.90;82.40;;;5.74;55.64;98566.03;6117074;22;122314;-88
2022/01/31 03:36:21;;;;;;;10.23;3.27;;;5.20;81.70;;;5.73;55.39;98542.47;6169938;22;114954;-89
2022/01/31 03:38:50;;;;;;;6.77;3.20;;;5.20;81.80;;;5.69;55.50;98530.44;6144532;22;112399;-88
2022/01/31 03:41:21;;;;;;;6.70;2.97;;;5.30;81.80;;;5.73;55.08;98506.84;6141673;22;123614;-89
2022/01/31 03:43:49;;;;;;;7.57;3.73;;;5.30;81.90;;;5.74;55.38;98511.19;6142132;22;121817;-88
2022/01/31 03:46:17;;;;;;;5.27;3.20;;;5.20;81.70;;;5.74;55.09;98530.38;6142049;22;114997;-88
2022/01/31 03:49:04;;;;;;;11.03;2.97;;;5.20;81.70;;;5.79;55.35;98545.16;6117936;22;114432;-88
2022/01/31 03:51:30;;;;;;;5.50;2.60;;;5.30;81.80;;;5.78;55.49;98565.44;6167031;22;123044;-88
2022/01/31 03:54:17;;;;;;;10.57;3.20;;;5.20;81.80;;;5.81;55.20;98564.91;6168161;22;122618;-88
2022/01/31 03:56:45;;;;;;;8.07;3.07;;;5.30;81.80;;;5.75;55.27;98553.97;6167860;22;114347;-89
2022/01/31 03:59:12;;;;;;;6.47;3.20;;;5.30;81.70;;;5.72;55.61;98559.19;6116519;22;112210;-89
2022/01/31 04:01:58;;;;;;;11.17;3.20;;;5.20;81.60;;;5.72;55.46;98554.56;6167763;22;123893;-89
2022/01/31 04:04:24;;;;;;;11.43;4.00;;;5.20;81.70;;;5.68;55.76;98539.78;6166666;22;121259;-89
2022/01/31 04:07:10;;;;;;;6.63;2.97;;;5.30;81.80;;;5.72;55.52;98542.75;6115480;22;112170;-89
2022/01/31 04:09:57;;;;;;;7.60;2.90;;;5.20;81.80;;;5.73;55.13;98539.72;6167027;22;113569;-88
2022/01/31 04:12:25;;;;;;;8.63;3.10;;;5.20;81.80;;;5.72;55.72;98535.38;6165907;22;123034;-89
2022/01/31 04:14:54;;;;;;;6.37;3.30;;;5.20;81.70;;;5.76;56.05;98535.59;6116893;22;123757;-89
2022/01/31 04:17:21;;;;;;;9.93;2.70;;;5.50;82.00;;;5.80;55.86;98533.91;6140275;22;112799;-89
2022/01/31 04:19:48;;;;;;;5.47;2.57;;;5.30;81.80;;;5.85;55.77;98533.03;6139828;22;114086;-89
2022/01/31 04:22:18;;;;;;;7.60;2.60;;;5.30;81.80;;;5.93;54.91;98524.19;6166133;22;123109;-88
2022/01/31 04:25:06;;;;;;;6.40;3.10;;;5.40;81.90;;;6.00;55.63;98523.91;6164263;22;123343;-88
2022/01/31 04:27:44;;;;;;;6.90;2.93;;;5.40;81.90;;;6.00;55.70;98513.75;6138461;22;112489;-88
2022/01/31 04:30:14;;;;;;;13.47;3.23;;;5.40;81.90;;;6.01;54.67;98504.41;6140654;22;114050;-87
2022/01/31 04:32:59;;;;;;;10.50;2.90;;;5.40;82.40;;;6.06;54.83;98507.09;6113733;22;123053;-88
2022/01/31 04:35:44;;;;;;;8.80;3.20;;;5.50;81.80;;;6.06;54.82;98492.56;6179975;22;123164;-89
2022/01/31 04:38:12;;;;;;;9.13;3.07;;;5.50;81.70;;;6.04;55.36;98487.38;6142444;22;113887;-89
2022/01/31 04:40:40;;;;;;;4.03;2.50;;;5.50;81.70;;;6.04;55.08;98492.03;6196789;22;115122;-88
2022/01/31 04:43:08;;;;;;;6.50;3.20;;;5.50;81.70;;;6.05;55.43;98478.06;6195099;22;123019;-89
2022/01/31 04:46:32;;;;;;;9.90;3.40;;;5.50;81.70;;;6.08;55.64;98455.53;6195434;22;124020;-88
2022/01/31 04:52:26;;;;;;;4.00;2.53;;;5.50;81.70;;;6.04;55.15;98426.22;6195355;22;113569;-89
2022/01/31 04:54:54;;;;;;;10.57;3.37;;;5.50;81.70;;;6.05;55.10;98422.38;6167724;22;123704;-89
2022/01/31 04:57:40;;;;;;;6.20;3.50;;;5.50;81.60;;;6.06;55.11;98391.91;6195961;22;123034;-89
2022/01/31 05:00:10;;;;;;;9.37;3.70;;;5.50;81.70;;;6.06;55.15;98382.88;6193184;22;114590;-89
2022/01/31 05:02:37;;;;;;;10.10;3.50;;;5.50;81.70;;;6.06;55.03;98383.69;6191031;22;112977;-89
2022/01/31 05:05:05;;;;;;;8.30;3.33;;;5.50;81.70;;;6.08;54.52;98370.50;6162888;22;122709;-88
2022/01/31 05:07:32;;;;;;;7.33;2.70;;;5.50;81.70;;;6.07;55.03;98357.91;6189959;22;122624;-89
2022/01/31 05:10:01;;;;;;;13.30;3.50;;;5.60;81.70;;;6.09;55.27;98355.66;6190249;22;113375;-89
2022/01/31 05:12:28;;;;;;;6.40;3.00;;;5.50;81.70;;;6.09;55.46;98333.72;6188487;22;112978;-88
2022/01/31 05:14:55;;;;;;;12.60;3.83;;;5.60;81.80;;;6.09;55.05;98330.19;6161644;22;122002;-88
2022/01/31 05:17:21;;;;;;;14.50;3.23;;;5.60;81.80;;;6.09;54.67;98324.69;6162862;22;121791;-89
2022/01/31 05:19:48;;;;;;;5.67;2.77;;;5.60;81.90;;;6.09;55.39;98294.53;6163810;22;112897;-89
2022/01/31 05:22:14;;;;;;;7.07;3.20;;;5.60;82.00;;;6.12;55.25;98280.22;6190191;22;113163;-89
2022/01/31 05:24:42;;;;;;;11.20;3.83;;;5.60;82.00;;;6.12;55.95;98264.56;6187476;22;123766;-87
2022/01/31 05:27:08;;;;;;;5.77;2.87;;;5.60;82.10;;;6.13;55.67;98248.94;6187176;22;122644;-89
2022/01/31 05:29:35;;;;;;;7.93;3.70;;;5.60;82.10;;;6.12;55.47;98264.56;6185425;22;114832;-88
2022/01/31 05:32:02;;;;;;;9.13;3.50;;;5.60;82.10;;;6.13;55.30;98257.19;6185459;22;114011;-89
2022/01/31 05:34:28;;;;;;;16.03;3.30;;;5.60;82.10;;;6.16;55.16;98268.38;6158071;22;122045;-88
2022/01/31 05:36:56;;;;;;;11.97;3.90;;;5.70;82.20;;;6.18;55.31;98266.16;6186087;22;122770;-90
2022/01/31 05:39:24;;;;;;;7.73;2.67;;;5.70;82.30;;;6.22;54.89;98263.63;6159581;22;113077;-88
2022/01/31 05:41:53;;;;;;;8.23;3.17;;;5.70;82.30;;;6.23;55.19;98257.00;6183615;22;113828;-89
2022/01/31 05:44:21;;;;;;;4.60;2.73;;;5.70;82.30;;;6.25;55.25;98252.03;6185126;22;123409;-89
2022/01/31 05:46:48;;;;;;;8.23;2.73;;;5.70;82.30;;;6.29;55.27;98250.34;6134163;22;123211;-88
2022/01/31 05:49:16;;;;;;;9.30;3.10;;;5.80;82.30;;;6.32;55.42;98238.78;6184577;22;113201;-89
2022/01/31 05:52:04;;;;;;;6.43;2.30;;;5.80;82.30;;;6.38;55.23;98223.03;6184846;22;113694;-90
2022/01/31 05:54:32;;;;;;;7.43;2.47;;;6.10;82.50;;;6.41;55.45;98215.03;6180863;22;123303;-89
2022/01/31 05:56:59;;;;;;;4.00;2.67;;;5.90;82.30;;;6.46;55.24;98200.41;6181964;22;123160;-89
2022/01/31 05:59:26;;;;;;;8.10;3.10;;;5.90;82.20;;;6.49;55.45;98205.28;6183224;22;114216;-88
2022/01/31 06:01:53;;;;;;;9.23;3.27;;;6.00;82.20;;;6.51;55.10;98200.31;6156996;22;112827;-88
2022/01/31 06:04:20;;;;;;;8.43;3.20;;;5.90;82.10;;;6.53;55.22;98192.63;6183793;22;123564;-87
2022/01/31 06:06:46;;;;;;;6.13;2.93;;;6.00;82.20;;;6.54;55.08;98177.78;6184463;22;123367;-87
2022/01/31 06:09:13;;;;;;;5.90;2.70;;;6.00;82.20;;;6.55;55.13;98179.38;6184856;22;113815;-88
2022/01/31 06:11:39;;;;;;;16.87;3.60;;;6.00;82.30;;;6.57;55.15;98176.34;6131934;22;112348;-87
2022/01/31 06:14:08;;;;;;;8.77;3.07;;;6.40;82.60;;;6.58;54.88;98167.84;6179224;22;123253;-87
2022/01/31 06:16:35;;;;;;;8.13;3.77;;;6.00;82.90;;;6.60;55.40;98164.75;6153546;22;124474;-89
2022/01/31 06:19:02;;;;;;;5.33;3.10;;;6.10;82.50;;;6.59;55.20;98152.97;6181554;22;114519;-88
2022/01/31 06:21:29;;;;;;;6.50;2.80;;;6.10;82.50;;;6.57;55.58;98146.97;6190694;22;113989;-87
2022/01/31 06:23:56;;;;;;;11.63;3.40;;;6.10;82.80;;;6.55;55.92;98162.91;6185533;22;123477;-89
2022/01/31 06:26:23;;;;;;;10.17;3.10;;;6.10;83.20;;;6.53;56.70;98148.72;6189268;22;123341;-90
2022/01/31 06:28:50;;;;;;;11.40;3.80;;;6.00;83.60;;;6.50;56.69;98154.81;6189013;22;113485;-88
2022/01/31 06:32:14;;;;;;;7.80;3.17;;;6.90;84.60;;;6.47;57.34;98149.09;6187790;22;112161;-89
2022/01/31 06:34:41;;;;;;;9.77;4.00;;;6.00;84.00;;;6.40;57.09;98150.28;6173606;22;123690;-87
2022/01/31 06:37:08;;;;;;;10.27;2.87;;;6.00;84.30;;;6.38;57.78;98146.22;6155288;22;123723;-88
2022/01/31 06:39:34;;;;;;;9.00;3.20;;;6.00;84.50;;;6.37;58.44;98128.16;6106552;22;114133;-89
2022/01/31 06:42:02;;;;;;;11.80;3.27;;;5.90;85.40;;;6.31;58.64;98132.06;6156948;22;112854;-87
2022/01/31 06:44:28;;;;;;;10.93;3.70;;;5.80;85.50;;;6.25;58.82;98130.53;6154359;22;123488;-89
2022/01/31 06:46:55;;;;;;;8.10;2.90;;;5.80;86.00;;;6.22;59.04;98136.63;6156606;22;123786;-88
2022/01/31 06:49:21;;;;;;;9.30;3.33;;;5.80;86.70;;;6.17;59.98;98135.59;6155082;22;113454;-87
2022/01/31 06:51:48;;;;;;;9.63;4.10;;;5.80;87.00;;;6.16;59.54;98133.16;6127857;22;113083;-89
2022/01/31 06:54:14;;;;;;;7.47;2.93;;;5.80;87.10;;;6.16;59.83;98138.66;6157433;22;122935;-82
2022/01/31 06:56:42;;;;;;;9.83;3.30;;;6.30;88.10;;;6.15;60.38;98137.00;6153671;22;123815;-83
2022/01/31 06:59:10;;;;;;;7.20;2.90;;;6.00;87.70;;;6.14;59.74;98141.69;6153957;22;113672;-84
2022/01/31 07:01:37;;;;;;;10.73;3.83;;;5.70;87.70;;;6.14;59.67;98163.63;6153491;22;114590;-83
2022/01/31 07:04:06;;;;;;;10.97;3.60;;;5.70;88.00;;;6.14;60.47;98147.16;6126262;22;124575;-83
2022/01/31 07:06:32;;;;;;;9.33;3.43;;;5.70;88.10;;;6.12;60.29;98143.91;6151843;22;122886;-83
2022/01/31 07:09:03;;;;;;;9.27;3.47;;;5.70;88.40;;;6.14;60.57;98155.38;6126868;22;112971;-81
2022/01/31 07:11:52;;;;;;;6.10;2.93;;;5.70;88.40;;;6.16;61.02;98149.63;6079805;22;113714;-85
2022/01/31 07:14:30;;;;;;;8.90;3.27;;;5.70;88.80;;;6.12;60.87;98160.34;6161476;22;123344;-90
2022/01/31 07:17:20;;;;;;;7.93;3.30;;;5.70;88.90;;;6.14;61.13;98165.56;6165277;22;124733;-89
2022/01/31 07:19:47;;;;;;;12.20;3.73;;;5.70;89.60;;;6.10;61.66;98167.25;6112469;22;112565;-89
2022/01/31 07:22:37;;;;;;;8.30;2.83;;;5.70;89.80;;;6.10;61.68;98157.13;6145956;22;113712;-88
2022/01/31 07:25:20;;;;;;;5.33;2.60;;;5.70;90.10;;;6.07;62.34;98168.69;6144133;22;123358;-88
2022/01/31 07:27:48;;;;;;;5.63;2.67;;;5.60;90.30;;;6.05;62.83;98159.13;6159620;22;123082;-88
2022/01/31 07:30:35;;;;;;;11.23;4.87;;;5.60;90.50;;;6.03;62.99;98150.38;6161200;22;114724;-89
2022/01/31 07:33:03;;;;;;;5.53;3.03;;;5.60;90.70;;;6.00;63.17;98157.28;6163735;22;113746;-89
2022/01/31 07:35:31;;;;;;;5.80;2.50;;;5.60;90.70;;;6.01;63.36;98152.59;6181707;22;123797;-88
2022/01/31 07:38:17;;;;;;;10.30;2.90;;;5.60;90.90;;;6.02;63.79;98149.56;6188080;22;124148;-89
2022/01/31 07:40:46;;;;;;;7.10;3.27;;;5.60;91.20;;;5.98;63.43;98159.50;6188941;22;113615;-88
2022/01/31 07:43:13;;;;;;;6.83;2.80;;;5.60;91.20;;;5.96;64.10;98167.19;6191984;22;113070;-90
2022/01/31 07:45:46;;;;;;;7.27;2.67;;;5.50;91.40;;;5.97;64.57;98179.81;6172036;22;123008;-88
2022/01/31 07:48:33;;;;;;;3.37;2.83;;;5.60;91.60;;;5.94;64.65;98169.44;6193404;22;122947;-89
2022/01/31 07:51:00;;;;;;;4.03;2.80;;;5.50;91.70;;;5.91;64.46;98178.19;6197316;22;113563;-90
2022/01/31 07:53:28;;;;;;;4.03;2.30;;;5.50;91.80;;;5.90;64.20;98168.38;6193973;22;113864;-89
2022/01/31 07:55:55;;;;;;;4.43;2.30;;;6.20;92.20;;;5.89;64.94;98184.00;6188196;22;124607;-90
2022/01/31 07:58:26;;;;;;;8.03;2.77;;;5.50;91.90;;;5.89;64.81;98177.72;6182627;22;123575;-89
2022/01/31 08:00:55;;;;;;;4.40;2.30;;;5.70;92.10;;;5.89;65.37;98194.16;6155715;22;113332;-90
2022/01/31 08:03:22;;;;;;;6.77;2.63;;;5.50;92.00;;;5.90;64.95;98196.59;6156341;22;113739;-89
2022/01/31 08:05:50;;;;;;;2.23;1.80;;;5.50;92.10;;;5.91;65.40;98186.44;6159108;22;123380;-90
2022/01/31 08:08:17;;;;;;;3.00;2.03;;;5.50;92.40;;;5.91;65.86;98169.97;6183893;22;123038;-89
2022/01/31 08:10:44;;;;;;;4.00;2.23;;;5.50;92.40;;;5.92;65.58;98172.44;6183821;22;113481;-89
2022/01/31 08:16:52;;;;;;;4.33;1.90;;;5.50;92.50;;;5.86;65.89;98194.75;6189538;22;124018;-90
2022/01/31 08:19:37;;;;;;;7.00;2.80;;;5.50;92.60;;;5.86;65.48;98181.06;6193702;22;122723;-89
2022/01/31 08:22:23;;;;;;;5.17;2.10;;;5.50;92.60;;;5.87;65.79;98188.16;6185219;22;114155;-89
2022/01/31 08:24:55;;;;;;;3.17;1.80;;;5.50;92.60;;;5.89;65.34;98205.13;6186917;22;112946;-87
2022/01/31 08:27:26;;;;;;;3.00;1.90;;;5.50;92.60;;;5.91;65.52;98197.41;6163149;22;122990;-88
2022/01/31 08:30:39;;;;;;;3.63;1.67;;;5.50;92.60;;;5.93;65.25;98192.44;6161759;22;121534;-89
2022/01/31 08:33:13;;;;;;;3.17;1.80;;;5.50;92.60;;;5.92;65.37;98194.38;6179132;22;113828;-89
2022/01/31 08:35:50;;;;;;;2.97;1.70;;;5.50;92.50;;;5.96;65.32;98216.53;6155066;22;112146;-89
2022/01/31 08:38:18;;;;;;;1.87;1.37;;;5.50;92.60;;;6.00;65.97;98216.78;6182057;22;124063;-87
2022/01/31 08:40:45;;;;;;;1.80;1.57;;;6.00;92.80;;;6.00;64.43;98212.13;6180937;22;123526;-89
2022/01/31 08:43:32;;;;;;;2.10;1.10;;;5.50;92.50;;;6.03;65.05;98203.28;6155337;22;114440;-89
2022/01/31 08:45:58;;;;;;;1.40;1.20;;;5.60;92.40;;;6.02;65.11;98190.69;6157441;22;112907;-88
2022/01/31 08:48:30;;;;;;;3.60;1.37;;;5.60;92.40;;;6.07;65.12;98195.28;6183432;22;123394;-89
2022/01/31 08:50:57;;;;;;;1.70;1.23;;;5.70;92.40;;;6.08;65.49;98192.25;6152205;22;122344;-90
2022/01/31 08:57:06;;;;;;;1.40;1.30;;;5.70;92.30;;;6.12;64.48;98176.81;6187039;22;115277;-88
2022/01/31 08:59:33;;;;;;;2.90;1.40;;;5.70;92.30;;;6.15;64.62;98195.44;6155130;22;123035;-89
2022/01/31 09:02:28;;;;;;;2.80;1.53;;;5.80;92.30;;;6.22;64.38;98186.00;6181765;22;122783;-89
2022/01/31 09:04:55;;;;;;;1.70;1.37;;;5.80;92.30;;;6.19;64.97;98163.53;6157612;22;114119;-89
2022/01/31 09:07:42;;;;;;;1.43;1.30;;;5.80;92.20;;;6.25;64.02;98169.75;6155079;22;113788;-87
2022/01/31 09:10:10;;;;;;;2.40;1.90;;;5.80;92.10;;;6.26;64.82;98174.16;6181956;22;123714;-89
2022/01/31 09:12:37;;;;;;;7.80;1.77;;;5.80;92.00;;;6.33;63.62;98169.06;6182370;22;122900;-90
2022/01/31 09:15:07;;;;;;;4.33;1.83;;;5.90;92.00;;;6.37;63.34;98170.09;6179853;22;114023;-87
2022/01/31 09:17:55;;;;;;;2.80;1.53;;;5.90;91.80;;;6.44;63.47;98158.72;6155338;22;112412;-88
2022/01/31 09:20:21;;;;;;;1.37;1.27;;;6.00;91.70;;;6.49;62.79;98161.38;6161575;22;124026;-90
2022/01/31 09:22:49;;;;;;;1.90;1.73;;;6.10;91.70;;;6.59;63.24;98146.69;6183168;22;123921;-89
2022/01/31 09:25:16;;;;;;;2.43;1.63;;;6.10;91.50;;;6.67;63.09;98150.66;6180986;22;113556;-90
2022/01/31 09:27:44;;;;;;;2.23;1.60;;;6.90;91.70;;;6.75;62.60;98160.94;6181092;22;114217;-90
2022/01/31 09:30:14;;;;;;;4.93;1.63;;;6.30;91.30;;;6.81;61.80;98152.28;6179955;22;124223;-85
2022/01/31 09:32:41;;;;;;;2.67;1.47;;;6.30;90.90;;;6.86;61.05;98163.19;6177954;22;122787;-90
2022/01/31 09:35:07;;;;;;;1.93;1.30;;;6.40;90.70;;;6.92;61.45;98166.63;6160665;22;114368;-88
2022/01/31 09:37:36;;;;;;;2.73;1.50;;;6.50;90.70;;;6.98;60.99;98176.41;6098764;22;111777;-89
2022/01/31 09:40:05;;;;;;;4.50;1.53;;;6.50;90.40;;;7.04;60.59;98179.88;6150525;22;123895;-87
2022/01/31 09:42:50;;;;;;;2.70;1.73;;;6.60;90.30;;;7.08;60.43;98169.91;6149486;22;123497;-88
2022/01/31 09:45:33;;;;;;;2.27;1.60;;;6.80;90.30;;;7.11;60.23;98158.31;6150016;22;114198;-86
2022/01/31 09:50:48;;;;;;;1.93;1.30;;;6.70;89.70;;;7.19;59.38;98181.50;6151157;22;123883;-88
2022/01/31 09:53:14;;;;;;;2.93;1.70;;;6.70;89.20;;;7.18;59.30;98157.91;6124816;22;122010;-89
2022/01/31 09:55:41;;;;;;;4.10;1.60;;;6.70;89.00;;;7.20;59.07;98167.47;6150529;22;114389;-89
2022/01/31 09:58:10;;;;;;;2.80;1.70;;;7.70;89.90;;;7.26;58.78;98170.94;6150126;22;113878;-88
2022/01/31 10:00:37;;;;;;;2.70;1.60;;;6.80;88.80;;;7.28;58.60;98169.50;6148682;22;123823;-89
2022/01/31 10:03:09;;;;;;;2.57;1.70;;;6.80;88.60;;;7.31;58.15;98157.09;6085063;23;122574;-87
2022/01/31 10:05:39;;;;;;;2.70;1.70;;;6.80;88.00;;;7.29;58.61;98154.63;6086874;23;112885;-86
2022/01/31 10:08:14;;;;;;;4.53;2.10;;;6.90;87.80;;;7.29;58.25;98154.63;6037104;23;113111;-88
2022/01/31 10:11:10;;;;;;;2.70;1.67;;;6.90;87.80;;;7.32;58.01;98164.19;6085509;23;124097;-89
2022/01/31 10:16:32;;;;;;;3.87;1.70;;;6.90;86.90;;;7.30;57.86;98178.22;6074469;23;113994;-89
2022/01/31 10:19:08;;;;;;;3.63;2.17;;;6.90;87.40;;;7.32;57.46;98158.69;6070946;23;112161;-90
2022/01/31 10:22:08;;;;;;;2.73;1.70;;;6.90;86.70;;;7.37;57.44;98166.03;6093132;23;124211;-89
2022/01/31 10:24:37;;;;;;;2.33;1.67;;;6.90;86.80;;;7.39;57.08;98178.34;6094777;23;123930;-89
2022/01/31 10:27:29;;;;;;;1.80;1.47;;;6.90;86.50;;;7.45;56.91;98184.56;6095228;23;113330;-89
2022/01/31 10:30:13;;;;;;;9.20;1.70;;;7.00;86.40;;;7.47;56.64;98152.88;6095897;23;113543;-89
2022/01/31 10:32:46;;;;;;;2.23;1.50;;;7.00;86.40;;;7.52;56.29;98149.19;6071095;23;122609;-89
2022/01/31 10:35:31;;;;;;;3.77;2.03;;;7.80;86.50;;;7.55;56.03;98145.00;6143337;22;122907;-90
2022/01/31 10:38:10;;;;;;;4.53;1.73;;;7.10;85.30;;;7.54;56.29;98130.47;6187682;22;115041;-89
2022/01/31 10:53:08;;;;;;;3.93;1.70;;;7.20;83.70;;;7.55;54.74;98129.38;6074166;23;114298;-87
2022/01/31 10:55:36;;;;;;;2.90;1.97;;;7.20;83.60;;;7.56;54.86;98128.22;6094641;23;123663;-89
2022/01/31 10:58:23;;;;;;;2.00;1.57;;;7.20;83.00;;;7.59;54.33;98113.84;6095734;23;123433;-88
2022/01/31 11:00:53;;;;;;;2.37;1.50;;;7.20;82.60;;;7.60;54.61;98122.91;6097167;23;113397;-87
2022/01/31 11:03:33;;;;;;;2.50;1.50;;;7.20;82.90;;;7.61;53.81;98144.63;6075742;23;113397;-89
2022/01/31 11:06:08;;;;;;;1.90;1.50;;;7.20;82.50;;;7.59;54.01;98115.81;6099910;23;123979;-89
2022/01/31 11:09:13;;;;;;;3.30;1.33;;;7.20;82.30;;;7.58;54.14;98109.50;6099001;23;124767;-86
2022/01/31 11:11:47;;;;;;;5.90;1.63;;;7.20;82.50;;;7.59;54.28;98116.59;6096366;23;113677;-88
2022/01/31 11:14:39;;;;;;;2.37;1.90;;;7.20;82.70;;;7.61;54.43;98105.31;6062382;23;113403;-88
2022/01/31 11:17:25;;;;;;;6.00;1.80;;;7.20;83.00;;;7.64;54.75;98126.69;6086904;23;123797;-88
2022/01/31 11:19:58;;;;;;;4.70;1.83;;;7.20;82.90;;;7.62;54.42;98116.00;6085974;23;124728;-89
2022/01/31 11:22:32;;;;;;;2.67;1.87;;;7.20;83.10;;;7.66;54.57;98118.94;6086464;23;113409;-90
2022/01/31 11:25:08;;;;;;;2.40;1.47;;;7.20;83.00;;;7.69;54.50;98121.06;6179163;22;115170;-89
2022/01/31 11:27:38;;;;;;;3.47;1.90;;;7.30;83.00;;;7.70;54.43;98125.44;6179216;22;124450;-90
2022/01/31 11:30:07;;;;;;;3.83;1.60;;;7.30;82.70;;;7.69;54.50;98107.31;6180108;22;123119;-89
2022/01/31 11:32:37;;;;;;;2.83;1.70;;;7.30;82.60;;;7.68;54.45;98130.44;6178532;22;115120;-90
2022/01/31 11:35:04;;;;;;;2.40;1.60;;;7.30;82.40;;;7.67;53.84;98123.31;6164747;22;115474;-89